Time,TemperatureF,DewpointF,PressureIn,WindDirection,WindDirectionDegrees,WindSpeedMPH,WindSpeedGustMPH,Humidity,HourlyPrecipIn,Conditions,Clouds,dailyrainin,SoftwareType,DateUTC
2013-05-27 00:01:00,59.5,37.0,30.21,NE,45,0.0,0.0,43,0.00,,---,0.00,VWS V14.00,2013-05-27 04:01:00,
2013-05-27 00:02:00,59.5,37.0,30.21,NE,45,0.0,0.0,43,0.00,,---,0.00,VWS V14.00,2013-05-27 04:02:00,
2013-05-27 00:07:00,59.5,37.0,30.21,NE,45,0.0,0.0,43,0.00,,---,0.00,VWS V14.00,2013-05-27 04:07:00,
2013-05-27 00:12:00,59.5,37.0,30.21,NE,45,0.0,0.0,43,0.00,,---,0.00,VWS V14.00,2013-05-27 04:12:00,
2013-05-27 00:17:00,59.5,37.0,30.21,NE,45,0.0,0.0,43,0.00,,---,0.00,VWS V14.00,2013-05-27 04:17:00,
2013-05-27 00:22:00,59.4,37.5,30.21,NE,45,0.0,0.0,44,0.00,,---,0.00,VWS V14.00,2013-05-27 04:22:00,
2013-05-27 00:27:00,59.4,36.9,30.21,NE,45,0.0,0.0,43,0.00,,---,0.00,VWS V14.00,2013-05-27 04:27:00,
2013-05-27 00:32:00,59.4,37.5,30.21,NE,45,0.0,0.0,44,0.00,,---,0.00,VWS V14.00,2013-05-27 04:32:00,
2013-05-27 00:37:00,59.2,37.3,30.21,NE,45,0.0,0.0,44,0.00,,---,0.00,VWS V14.00,2013-05-27 04:37:00,
2013-05-27 00:42:00,59.0,37.1,30.21,NE,45,0.0,0.0,44,0.00,,---,0.00,VWS V14.00,2013-05-27 04:42:00,
2013-05-27 00:47:00,58.8,37.5,30.21,SSE,158,1.3,1.3,45,0.00,,---,0.00,VWS V14.00,2013-05-27 04:47:00,
2013-05-27 00:52:00,58.6,37.4,30.21,SSE,158,0.0,0.0,45,0.00,,---,0.00,VWS V14.00,2013-05-27 04:52:00,
2013-05-27 00:57:00,58.6,37.4,30.21,SE,135,0.0,0.0,45,0.00,,---,0.00,VWS V14.00,2013-05-27 04:57:00,
2013-05-27 01:02:00,58.5,37.2,30.21,SE,135,0.0,0.0,45,0.00,,---,0.00,VWS V14.00,2013-05-27 05:02:00,
2013-05-27 01:07:00,58.3,37.0,30.21,SE,135,0.0,0.0,45,0.00,,---,0.00,VWS V14.00,2013-05-27 05:07:00,
2013-05-27 01:13:00,58.3,37.0,30.21,ENE,68,0.0,0.0,45,0.00,,---,0.00,VWS V14.00,2013-05-27 05:13:00,
2013-05-27 01:18:00,58.3,37.0,30.21,ENE,68,0.0,0.0,45,0.00,,---,0.00,VWS V14.00,2013-05-27 05:18:00,
2013-05-27 01:23:00,58.3,37.6,30.21,SSW,202,0.0,1.3,46,0.00,,---,0.00,VWS V14.00,2013-05-27 05:23:00,
2013-05-27 01:28:00,58.3,37.0,30.21,ENE,68,0.0,0.0,45,0.00,,---,0.00,VWS V14.00,2013-05-27 05:28:00,
2013-05-27 01:33:00,58.3,37.6,30.21,SSE,158,1.3,2.5,46,0.00,,---,0.00,VWS V14.00,2013-05-27 05:33:00,
2013-05-27 01:38:00,58.3,37.6,30.21,East,90,0.0,0.0,46,0.00,,---,0.00,VWS V14.00,2013-05-27 05:38:00,
2013-05-27 01:43:00,58.3,37.6,30.21,East,90,0.0,1.1,46,0.00,,---,0.00,VWS V14.00,2013-05-27 05:43:00,
2013-05-27 01:48:00,58.3,37.6,30.21,SSW,202,0.0,0.0,46,0.00,,---,0.00,VWS V14.00,2013-05-27 05:48:00,
2013-05-27 01:53:00,58.1,37.5,30.21,SW,225,0.0,0.0,46,0.00,,---,0.00,VWS V14.00,2013-05-27 05:53:00,
2013-05-27 01:58:00,58.1,38.0,30.18,SW,225,0.0,0.0,47,0.00,,---,0.00,VWS V14.00,2013-05-27 05:58:00,
2013-05-27 02:03:00,58.1,38.0,30.18,SW,225,0.0,0.0,47,0.00,,---,0.00,VWS V14.00,2013-05-27 06:03:00,
2013-05-27 02:08:00,57.9,37.8,30.18,SSW,202,0.9,0.9,47,0.00,,---,0.00,VWS V14.00,2013-05-27 06:08:00,
2013-05-27 02:13:00,57.9,37.8,30.21,ENE,68,0.0,0.0,47,0.00,,---,0.00,VWS V14.00,2013-05-27 06:13:00,
2013-05-27 02:18:00,57.9,37.8,30.21,ENE,68,0.0,0.0,47,0.00,,---,0.00,VWS V14.00,2013-05-27 06:18:00,
2013-05-27 02:23:00,57.9,37.8,30.21,ENE,68,0.0,0.0,47,0.00,,---,0.00,VWS V14.00,2013-05-27 06:23:00,
2013-05-27 02:28:00,57.9,37.8,30.18,SSE,158,0.0,0.0,47,0.00,,---,0.00,VWS V14.00,2013-05-27 06:28:00,
2013-05-27 02:34:00,57.9,37.3,30.18,SE,135,0.0,0.0,46,0.00,,---,0.00,VWS V14.00,2013-05-27 06:34:00,
2013-05-27 02:39:00,57.9,37.8,30.18,ESE,112,0.0,0.9,47,0.00,,---,0.00,VWS V14.00,2013-05-27 06:39:00,
2013-05-27 02:44:00,57.7,37.7,30.18,East,90,0.0,0.0,47,0.00,,---,0.00,VWS V14.00,2013-05-27 06:44:00,
2013-05-27 02:49:00,57.7,37.7,30.18,SW,225,1.3,2.0,47,0.00,,---,0.00,VWS V14.00,2013-05-27 06:49:00,
2013-05-27 02:54:00,57.7,37.7,30.18,SSW,202,1.1,1.1,47,0.00,,---,0.00,VWS V14.00,2013-05-27 06:54:00,
2013-05-27 02:59:00,57.7,37.7,30.18,SE,135,0.0,0.0,47,0.00,,---,0.00,VWS V14.00,2013-05-27 06:59:00,
2013-05-27 03:04:00,57.7,37.7,30.18,SSW,202,0.0,0.0,47,0.00,,---,0.00,VWS V14.00,2013-05-27 07:04:00,
2013-05-27 03:09:00,57.7,37.1,30.18,SSE,158,1.6,1.6,46,0.00,,---,0.00,VWS V14.00,2013-05-27 07:09:00,
2013-05-27 03:14:00,57.7,37.1,30.18,ENE,68,0.0,0.0,46,0.00,,---,0.00,VWS V14.00,2013-05-27 07:14:00,
2013-05-27 03:20:00,57.7,37.1,30.18,SE,135,0.0,0.0,46,0.00,,---,0.00,VWS V14.00,2013-05-27 07:20:00,
2013-05-27 03:25:00,57.6,37.5,30.18,SE,135,0.0,0.0,47,0.00,,---,0.00,VWS V14.00,2013-05-27 07:25:00,
2013-05-27 03:30:00,57.6,37.5,30.18,SSW,202,1.3,1.3,47,0.00,,---,0.00,VWS V14.00,2013-05-27 07:30:00,
2013-05-27 03:35:00,57.6,37.5,30.18,SW,225,2.2,2.2,47,0.00,,---,0.00,VWS V14.00,2013-05-27 07:35:00,
2013-05-27 03:40:00,57.6,37.5,30.18,SSW,202,0.0,0.0,47,0.00,,---,0.00,VWS V14.00,2013-05-27 07:40:00,
2013-05-27 03:45:00,57.6,37.5,30.18,South,180,0.0,0.0,47,0.00,,---,0.00,VWS V14.00,2013-05-27 07:45:00,
2013-05-27 03:50:00,57.4,37.9,30.18,South,180,0.0,0.0,48,0.00,,---,0.00,VWS V14.00,2013-05-27 07:50:00,
2013-05-27 03:55:00,57.4,37.9,30.18,SSE,158,1.1,1.1,48,0.00,,---,0.00,VWS V14.00,2013-05-27 07:55:00,
2013-05-27 04:00:00,57.4,37.3,30.18,SSE,158,1.3,1.3,47,0.00,,---,0.00,VWS V14.00,2013-05-27 08:00:00,
2013-05-27 04:05:00,57.4,37.3,30.18,SSE,158,0.0,0.9,47,0.00,,---,0.00,VWS V14.00,2013-05-27 08:05:00,
2013-05-27 04:10:00,57.4,37.3,30.18,NE,45,0.0,0.0,47,0.00,,---,0.00,VWS V14.00,2013-05-27 08:10:00,
2013-05-27 04:15:00,57.2,37.7,30.18,SSE,158,1.3,1.6,48,0.00,,---,0.00,VWS V14.00,2013-05-27 08:15:00,
2013-05-27 04:21:00,57.2,37.2,30.18,SE,135,1.6,5.6,47,0.00,,---,0.00,VWS V14.00,2013-05-27 08:21:00,
2013-05-27 04:26:00,57.2,37.2,30.18,SE,135,0.0,0.0,47,0.00,,---,0.00,VWS V14.00,2013-05-27 08:26:00,
2013-05-27 04:31:00,57.2,37.2,30.18,SE,135,0.0,0.0,47,0.00,,---,0.00,VWS V14.00,2013-05-27 08:31:00,
2013-05-27 04:36:00,57.0,37.5,30.18,ESE,112,0.0,0.0,48,0.00,,---,0.00,VWS V14.00,2013-05-27 08:36:00,
2013-05-27 04:41:00,57.0,37.0,30.18,SSE,158,0.0,0.0,47,0.00,,---,0.00,VWS V14.00,2013-05-27 08:41:00,
2013-05-27 04:46:00,57.0,37.5,30.18,SSE,158,1.3,1.6,48,0.00,,---,0.00,VWS V14.00,2013-05-27 08:46:00,
2013-05-27 04:51:00,57.0,37.0,30.18,SSE,158,2.5,2.5,47,0.00,,---,0.00,VWS V14.00,2013-05-27 08:51:00,
2013-05-27 04:56:00,57.0,37.0,30.18,South,180,0.0,1.1,47,0.00,,---,0.00,VWS V14.00,2013-05-27 08:56:00,
2013-05-27 05:01:00,57.0,37.0,30.18,SSE,158,2.5,2.5,47,0.00,,---,0.00,VWS V14.00,2013-05-27 09:01:00,
2013-05-27 05:06:00,57.0,37.0,30.18,South,180,1.6,1.6,47,0.00,,---,0.00,VWS V14.00,2013-05-27 09:06:00,
2013-05-27 05:11:00,57.0,36.5,30.18,SSE,158,0.9,1.6,46,0.00,,---,0.00,VWS V14.00,2013-05-27 09:11:00,
2013-05-27 05:16:00,57.0,36.5,30.18,SSW,202,1.1,2.0,46,0.00,,---,0.00,VWS V14.00,2013-05-27 09:16:00,
2013-05-27 05:22:00,56.8,36.8,30.18,South,180,1.3,2.0,47,0.00,,---,0.00,VWS V14.00,2013-05-27 09:22:00,
2013-05-27 05:27:00,56.8,36.3,30.18,SE,135,0.0,0.9,46,0.00,,---,0.00,VWS V14.00,2013-05-27 09:27:00,
2013-05-27 05:32:00,56.8,36.3,30.18,SSW,202,0.0,1.3,46,0.00,,---,0.00,VWS V14.00,2013-05-27 09:32:00,
2013-05-27 05:37:00,56.8,36.3,30.18,West,270,1.3,2.2,46,0.00,,---,0.00,VWS V14.00,2013-05-27 09:37:00,
2013-05-27 05:42:00,56.8,36.3,30.18,ESE,112,0.0,2.0,46,0.00,,---,0.00,VWS V14.00,2013-05-27 09:42:00,
2013-05-27 05:47:00,56.8,36.3,30.18,SSW,202,2.0,2.2,46,0.00,,---,0.00,VWS V14.00,2013-05-27 09:47:00,
2013-05-27 05:52:00,56.8,36.3,30.18,South,180,1.1,1.3,46,0.00,,---,0.00,VWS V14.00,2013-05-27 09:52:00,
2013-05-27 05:57:00,56.8,36.3,30.18,South,180,1.3,2.9,46,0.00,,---,0.00,VWS V14.00,2013-05-27 09:57:00,
2013-05-27 06:02:00,56.8,36.3,30.21,SSE,158,0.0,1.1,46,0.00,,---,0.00,VWS V14.00,2013-05-27 10:02:00,
2013-05-27 06:07:00,56.8,36.3,30.21,SSE,158,0.0,0.0,46,0.00,,---,0.00,VWS V14.00,2013-05-27 10:07:00,
2013-05-27 06:12:00,56.8,36.3,30.21,SW,225,2.0,3.6,46,0.00,,---,0.00,VWS V14.00,2013-05-27 10:12:00,
2013-05-27 06:17:00,56.8,36.3,30.18,SSE,158,1.3,2.5,46,0.00,,---,0.00,VWS V14.00,2013-05-27 10:17:00,
2013-05-27 06:22:00,56.8,36.3,30.18,SSE,158,1.3,2.2,46,0.00,,---,0.00,VWS V14.00,2013-05-27 10:22:00,
2013-05-27 06:27:00,56.8,36.3,30.18,NE,45,1.3,2.2,46,0.00,,---,0.00,VWS V14.00,2013-05-27 10:27:00,
2013-05-27 06:32:00,56.8,36.3,30.18,SSW,202,1.3,1.3,46,0.00,,---,0.00,VWS V14.00,2013-05-27 10:32:00,
2013-05-27 06:37:00,56.8,35.7,30.18,ESE,112,1.3,2.0,45,0.00,,---,0.00,VWS V14.00,2013-05-27 10:37:00,
2013-05-27 06:42:00,56.8,35.7,30.18,SSE,158,2.7,2.7,45,0.00,,---,0.00,VWS V14.00,2013-05-27 10:42:00,
2013-05-27 06:47:00,56.8,36.3,30.18,SE,135,1.1,1.6,46,0.00,,---,0.00,VWS V14.00,2013-05-27 10:47:00,
2013-05-27 06:52:00,56.8,35.7,30.18,SSE,158,2.2,2.5,45,0.00,,---,0.00,VWS V14.00,2013-05-27 10:52:00,
2013-05-27 06:57:00,57.0,35.9,30.18,South,180,1.6,2.0,45,0.00,,---,0.00,VWS V14.00,2013-05-27 10:57:00,
2013-05-27 07:02:00,57.0,35.9,30.18,SE,135,0.0,0.0,45,0.00,,---,0.00,VWS V14.00,2013-05-27 11:02:00,
2013-05-27 07:07:00,57.0,35.9,30.18,SSE,158,1.3,3.1,45,0.00,,---,0.00,VWS V14.00,2013-05-27 11:07:00,
2013-05-27 07:12:00,57.0,35.9,30.18,SSW,202,2.9,3.1,45,0.00,,---,0.00,VWS V14.00,2013-05-27 11:12:00,
2013-05-27 07:17:00,57.2,36.1,30.18,SE,135,2.7,2.7,45,0.00,,---,0.00,VWS V14.00,2013-05-27 11:17:00,
2013-05-27 07:22:00,57.2,35.5,30.18,SSE,158,2.7,3.4,44,0.00,,---,0.00,VWS V14.00,2013-05-27 11:22:00,
2013-05-27 07:27:00,57.2,35.5,30.18,North,0,2.2,2.2,44,0.00,,---,0.00,VWS V14.00,2013-05-27 11:27:00,
2013-05-27 07:32:00,57.4,35.7,30.18,South,180,2.0,2.2,44,0.00,,---,0.00,VWS V14.00,2013-05-27 11:32:00,
2013-05-27 07:37:00,57.4,35.7,30.18,WSW,248,1.3,4.3,44,0.00,,---,0.00,VWS V14.00,2013-05-27 11:37:00,
2013-05-27 07:42:00,57.4,35.1,30.18,West,270,1.6,3.4,43,0.00,,---,0.00,VWS V14.00,2013-05-27 11:42:00,
2013-05-27 07:47:00,57.4,35.1,30.15,SSE,158,2.0,3.8,43,0.00,,---,0.00,VWS V14.00,2013-05-27 11:47:00,
2013-05-27 07:52:00,57.4,35.7,30.15,North,0,3.4,3.4,44,0.00,,---,0.00,VWS V14.00,2013-05-27 11:52:00,
2013-05-27 07:57:00,57.2,36.1,30.15,South,180,3.1,7.4,45,0.00,,---,0.00,VWS V14.00,2013-05-27 11:57:00,
2013-05-27 08:02:00,57.0,35.9,30.18,SSE,158,0.0,3.6,45,0.00,,---,0.00,VWS V14.00,2013-05-27 12:02:00,
2013-05-27 08:07:00,57.0,36.5,30.18,NNW,338,1.1,4.7,46,0.00,,---,0.00,VWS V14.00,2013-05-27 12:07:00,
2013-05-27 08:12:00,57.0,36.5,30.18,ESE,112,0.0,2.2,46,0.00,,---,0.00,VWS V14.00,2013-05-27 12:12:00,
2013-05-27 08:17:00,57.0,36.5,30.18,SSE,158,0.9,1.1,46,0.00,,---,0.00,VWS V14.00,2013-05-27 12:17:00,
2013-05-27 08:22:00,57.0,37.0,30.18,South,180,1.1,2.5,47,0.00,,---,0.00,VWS V14.00,2013-05-27 12:22:00,
2013-05-27 08:27:00,56.8,37.4,30.18,East,90,2.7,3.6,48,0.00,,---,0.00,VWS V14.00,2013-05-27 12:27:00,
2013-05-27 08:32:00,56.8,37.4,30.15,SSE,158,3.4,3.4,48,0.00,,---,0.00,VWS V14.00,2013-05-27 12:32:00,
2013-05-27 08:37:00,56.8,37.9,30.15,SSE,158,3.6,3.6,49,0.00,,---,0.00,VWS V14.00,2013-05-27 12:37:00,
2013-05-27 08:42:00,56.7,37.7,30.15,SSE,158,2.5,3.4,49,0.00,,---,0.00,VWS V14.00,2013-05-27 12:42:00,
2013-05-27 08:47:00,56.7,38.2,30.18,SE,135,2.7,3.8,50,0.00,,---,0.00,VWS V14.00,2013-05-27 12:47:00,
2013-05-27 08:52:00,56.7,38.2,30.18,South,180,5.6,6.5,50,0.00,,---,0.00,VWS V14.00,2013-05-27 12:52:00,
2013-05-27 08:57:00,56.8,38.9,30.18,SSE,158,2.5,4.0,51,0.00,,---,0.00,VWS V14.00,2013-05-27 12:57:00,
2013-05-27 09:02:00,56.7,39.2,30.18,South,180,3.4,4.0,52,0.00,,---,0.00,VWS V14.00,2013-05-27 13:02:00,
2013-05-27 09:07:00,56.7,39.7,30.18,SSW,202,2.7,4.0,53,0.00,,---,0.00,VWS V14.00,2013-05-27 13:07:00,
2013-05-27 09:12:00,56.7,40.2,30.18,ENE,68,3.4,5.4,54,0.00,,---,0.00,VWS V14.00,2013-05-27 13:12:00,
2013-05-27 09:17:00,56.5,41.0,30.18,SE,135,3.1,5.8,56,0.00,,---,0.00,VWS V14.00,2013-05-27 13:17:00,
2013-05-27 09:22:00,56.5,41.5,30.18,SE,135,1.1,1.1,57,0.00,,---,0.00,VWS V14.00,2013-05-27 13:22:00,
2013-05-27 09:27:00,56.3,41.7,30.18,SSE,158,2.7,5.6,58,0.00,,---,0.00,VWS V14.00,2013-05-27 13:27:00,
2013-05-27 09:32:00,56.3,41.7,30.18,South,180,1.3,5.4,58,0.00,,---,0.00,VWS V14.00,2013-05-27 13:32:00,
2013-05-27 09:37:00,56.3,42.2,30.18,SSE,158,4.7,6.3,59,0.00,,---,0.00,VWS V14.00,2013-05-27 13:37:00,
2013-05-27 09:42:00,56.3,42.2,30.18,SSE,158,3.1,4.3,59,0.00,,---,0.00,VWS V14.00,2013-05-27 13:42:00,
2013-05-27 09:47:00,56.3,42.2,30.18,South,180,3.8,3.8,59,0.00,,---,0.00,VWS V14.00,2013-05-27 13:47:00,
2013-05-27 09:52:00,56.1,42.9,30.18,SSE,158,8.1,8.1,61,0.00,,---,0.00,VWS V14.00,2013-05-27 13:52:00,
2013-05-27 09:57:00,55.9,42.7,30.18,South,180,4.0,4.0,61,0.00,,---,0.00,VWS V14.00,2013-05-27 13:57:00,
2013-05-27 10:02:00,55.8,43.0,30.18,SSE,158,6.3,6.3,62,0.00,,---,0.00,VWS V14.00,2013-05-27 14:02:00,
2013-05-27 10:07:00,55.6,43.6,30.18,SSE,158,3.8,8.5,64,0.00,,---,0.00,VWS V14.00,2013-05-27 14:07:00,
2013-05-27 10:12:00,55.4,44.2,30.18,WNW,292,1.1,1.6,66,0.00,,---,0.00,VWS V14.00,2013-05-27 14:12:00,
2013-05-27 10:17:00,54.9,44.9,30.18,NE,45,2.5,2.5,69,0.00,,---,0.00,VWS V14.00,2013-05-27 14:17:00,
2013-05-27 10:22:00,54.7,45.1,30.18,ESE,112,1.1,2.5,70,0.00,,---,0.00,VWS V14.00,2013-05-27 14:22:00,
2013-05-27 10:27:00,54.5,44.9,30.18,SSE,158,3.4,3.4,70,0.00,,---,0.00,VWS V14.00,2013-05-27 14:27:00,
2013-05-27 10:32:00,54.3,45.1,30.18,SSE,158,1.6,3.8,71,0.00,,---,0.00,VWS V14.00,2013-05-27 14:32:00,
2013-05-27 10:37:00,54.1,45.3,30.18,ESE,112,2.7,3.1,72,0.00,,---,0.00,VWS V14.00,2013-05-27 14:37:00,
2013-05-27 10:42:00,54.0,45.5,30.18,South,180,4.9,4.9,73,0.00,,---,0.00,VWS V14.00,2013-05-27 14:42:00,
2013-05-27 10:47:00,53.8,45.7,30.15,SE,135,1.1,3.4,74,0.00,,---,0.00,VWS V14.00,2013-05-27 14:47:00,
2013-05-27 10:52:00,53.8,46.0,30.15,SSE,158,2.5,2.5,75,0.00,,---,0.00,VWS V14.00,2013-05-27 14:52:00,
2013-05-27 10:57:00,53.8,46.0,30.15,SSE,158,2.7,3.4,75,0.00,,---,0.00,VWS V14.00,2013-05-27 14:57:00,
2013-05-27 11:02:00,53.6,46.6,30.18,NNE,22,2.5,3.6,77,0.00,,---,0.00,VWS V14.00,2013-05-27 15:02:00,
2013-05-27 11:07:00,53.4,46.7,30.18,SE,135,2.0,2.9,78,0.00,,---,0.00,VWS V14.00,2013-05-27 15:07:00,
2013-05-27 11:12:00,53.6,46.9,30.18,SE,135,1.6,2.2,78,0.00,,---,0.00,VWS V14.00,2013-05-27 15:12:00,
2013-05-27 11:17:00,53.4,47.1,30.15,South,180,0.9,3.6,79,0.00,,---,0.00,VWS V14.00,2013-05-27 15:17:00,
2013-05-27 11:22:00,53.2,46.9,30.15,SSE,158,2.0,2.7,79,0.00,,---,0.00,VWS V14.00,2013-05-27 15:22:00,
2013-05-27 11:27:00,53.2,47.2,30.15,WSW,248,2.0,2.2,80,0.00,,---,0.00,VWS V14.00,2013-05-27 15:27:00,
2013-05-27 11:32:00,53.2,47.2,30.15,SW,225,0.9,1.1,80,0.00,,---,0.00,VWS V14.00,2013-05-27 15:32:00,
2013-05-27 11:37:00,53.2,47.2,30.15,ENE,68,1.1,1.6,80,0.00,,---,0.00,VWS V14.00,2013-05-27 15:37:00,
2013-05-27 11:42:00,53.2,47.9,30.15,NE,45,2.9,2.9,82,0.00,,---,0.00,VWS V14.00,2013-05-27 15:42:00,
2013-05-27 11:47:00,53.4,48.1,30.15,SSE,158,1.3,3.4,82,0.00,,---,0.00,VWS V14.00,2013-05-27 15:47:00,
2013-05-27 11:52:00,53.6,47.9,30.15,SE,135,1.1,2.2,81,0.00,,---,0.00,VWS V14.00,2013-05-27 15:52:00,
2013-05-27 11:57:00,53.6,48.2,30.15,SSE,158,5.6,5.6,82,0.00,,---,0.00,VWS V14.00,2013-05-27 15:57:00,
2013-05-27 12:02:00,53.6,48.2,30.12,South,180,1.3,3.1,82,0.00,,---,0.00,VWS V14.00,2013-05-27 16:02:00,
2013-05-27 12:07:00,53.6,48.6,30.12,SSE,158,2.2,2.2,83,0.00,,---,0.00,VWS V14.00,2013-05-27 16:07:00,
2013-05-27 12:12:00,53.8,48.8,30.12,East,90,2.5,2.5,83,0.00,,---,0.00,VWS V14.00,2013-05-27 16:12:00,
2013-05-27 12:17:00,54.0,48.6,30.12,ESE,112,2.5,2.5,82,0.00,,---,0.00,VWS V14.00,2013-05-27 16:17:00,
2013-05-27 12:22:00,54.3,49.3,30.12,WNW,292,2.7,2.7,83,0.00,,---,0.00,VWS V14.00,2013-05-27 16:22:00,
2013-05-27 12:27:00,54.3,49.3,30.12,WNW,292,1.3,2.5,83,0.00,,---,0.00,VWS V14.00,2013-05-27 16:27:00,
2013-05-27 12:33:00,54.3,49.0,30.12,South,180,4.7,4.9,82,0.00,,---,0.00,VWS V14.00,2013-05-27 16:33:00,
2013-05-27 12:38:00,54.1,48.8,30.12,SSE,158,4.9,4.9,82,0.00,,---,0.00,VWS V14.00,2013-05-27 16:38:00,
2013-05-27 12:43:00,54.0,48.6,30.12,South,180,5.6,5.6,82,0.00,,---,0.00,VWS V14.00,2013-05-27 16:43:00,
2013-05-27 12:48:00,53.8,48.4,30.12,SSE,158,4.9,6.0,82,0.00,,---,0.00,VWS V14.00,2013-05-27 16:48:00,
2013-05-27 12:53:00,53.6,48.2,30.12,North,0,2.5,3.4,82,0.00,,---,0.00,VWS V14.00,2013-05-27 16:53:00,
2013-05-27 12:58:00,53.1,48.0,30.12,South,180,2.7,3.8,83,0.00,,---,0.00,VWS V14.00,2013-05-27 16:58:00,
2013-05-27 13:03:00,52.9,48.2,30.12,SSE,158,0.9,1.6,84,0.00,,---,0.00,VWS V14.00,2013-05-27 17:03:00,
2013-05-27 13:08:00,52.9,48.5,30.12,East,90,1.1,3.4,85,0.00,,---,0.00,VWS V14.00,2013-05-27 17:08:00,
2013-05-27 13:13:00,52.7,48.3,30.12,NE,45,2.2,2.2,85,0.00,,---,0.00,VWS V14.00,2013-05-27 17:13:00,
2013-05-27 13:18:00,52.5,48.2,30.12,SSE,158,1.1,2.9,85,0.00,,---,0.00,VWS V14.00,2013-05-27 17:18:00,
2013-05-27 13:23:00,52.5,48.5,30.12,SSW,202,4.0,4.0,86,0.04,,---,0.04,VWS V14.00,2013-05-27 17:23:00,
2013-05-27 13:28:00,52.3,48.3,30.12,SSE,158,2.7,4.3,86,0.04,,---,0.04,VWS V14.00,2013-05-27 17:28:00,
2013-05-27 13:33:00,52.2,48.4,30.12,SSW,202,2.2,4.3,87,0.04,,---,0.04,VWS V14.00,2013-05-27 17:33:00,
2013-05-27 13:38:00,52.0,48.5,30.12,WSW,248,1.3,1.3,88,0.04,,---,0.04,VWS V14.00,2013-05-27 17:38:00,
2013-05-27 13:43:00,51.8,48.4,30.12,NE,45,1.3,1.3,88,0.04,,---,0.04,VWS V14.00,2013-05-27 17:43:00,
2013-05-27 13:48:00,51.6,48.5,30.12,South,180,2.5,2.5,89,0.04,,---,0.04,VWS V14.00,2013-05-27 17:48:00,
2013-05-27 13:53:00,51.4,48.6,30.12,South,180,2.5,3.8,90,0.04,,---,0.04,VWS V14.00,2013-05-27 17:53:00,
2013-05-27 13:58:00,51.4,48.3,30.09,South,180,3.6,3.6,89,0.04,,---,0.04,VWS V14.00,2013-05-27 17:58:00,
2013-05-27 14:03:00,51.4,48.6,30.09,SSE,158,1.3,1.6,90,0.04,,---,0.04,VWS V14.00,2013-05-27 18:03:00,
2013-05-27 14:08:00,51.4,48.6,30.09,SSE,158,2.0,2.0,90,0.04,,---,0.04,VWS V14.00,2013-05-27 18:08:00,
2013-05-27 14:13:00,51.4,48.6,30.06,NE,45,2.0,2.0,90,0.04,,---,0.04,VWS V14.00,2013-05-27 18:13:00,
2013-05-27 14:18:00,51.6,49.1,30.06,SW,225,0.0,1.1,91,0.04,,---,0.04,VWS V14.00,2013-05-27 18:18:00,
2013-05-27 14:23:00,52.0,49.4,30.06,South,180,0.0,0.9,91,0.00,,---,0.04,VWS V14.00,2013-05-27 18:23:00,
2013-05-27 14:28:00,52.7,50.2,30.06,SE,135,2.5,2.5,91,0.00,,---,0.04,VWS V14.00,2013-05-27 18:28:00,
2013-05-27 14:33:00,53.1,50.5,30.06,SSE,158,1.6,2.9,91,0.00,,---,0.04,VWS V14.00,2013-05-27 18:33:00,
2013-05-27 14:39:00,53.2,50.4,30.06,NNE,22,1.6,2.5,90,0.00,,---,0.04,VWS V14.00,2013-05-27 18:39:00,
2013-05-27 14:44:00,52.9,49.4,30.06,SSW,202,5.8,5.8,88,0.00,,---,0.04,VWS V14.00,2013-05-27 18:44:00,
2013-05-27 14:49:00,52.9,49.4,30.06,SE,135,3.1,4.9,88,0.00,,---,0.04,VWS V14.00,2013-05-27 18:49:00,
2013-05-27 14:54:00,52.7,49.0,30.06,SE,135,1.3,1.3,87,0.00,,---,0.04,VWS V14.00,2013-05-27 18:54:00,
2013-05-27 14:59:00,52.9,49.1,30.06,NNE,22,2.0,2.5,87,0.00,,---,0.04,VWS V14.00,2013-05-27 18:59:00,
2013-05-27 15:04:00,52.7,49.0,30.06,SSW,202,2.7,2.7,87,0.00,,---,0.04,VWS V14.00,2013-05-27 19:04:00,
2013-05-27 15:09:00,52.7,49.0,30.06,SSE,158,2.7,3.1,87,0.00,,---,0.04,VWS V14.00,2013-05-27 19:09:00,
2013-05-27 15:14:00,52.5,48.8,30.06,WSW,248,1.3,3.8,87,0.00,,---,0.04,VWS V14.00,2013-05-27 19:14:00,
2013-05-27 15:19:00,52.5,48.8,30.06,South,180,2.9,2.9,87,0.00,,---,0.04,VWS V14.00,2013-05-27 19:19:00,
2013-05-27 15:24:00,52.3,48.6,30.06,WNW,292,3.4,3.6,87,0.00,,---,0.04,VWS V14.00,2013-05-27 19:24:00,
2013-05-27 15:29:00,52.3,48.6,30.06,SE,135,1.3,2.0,87,0.00,,---,0.04,VWS V14.00,2013-05-27 19:29:00,
2013-05-27 15:34:00,52.2,48.4,30.06,NNE,22,2.7,2.9,87,0.00,,---,0.04,VWS V14.00,2013-05-27 19:34:00,
2013-05-27 15:39:00,52.0,48.5,30.06,ESE,112,2.5,2.5,88,0.00,,---,0.04,VWS V14.00,2013-05-27 19:39:00,
2013-05-27 15:44:00,51.8,48.4,30.06,South,180,2.9,4.3,88,0.00,,---,0.04,VWS V14.00,2013-05-27 19:44:00,
2013-05-27 15:49:00,52.0,48.8,30.06,SSW,202,3.6,3.6,89,0.00,,---,0.04,VWS V14.00,2013-05-27 19:49:00,
2013-05-27 15:54:00,51.8,48.7,30.06,South,180,1.6,2.7,89,0.00,,---,0.04,VWS V14.00,2013-05-27 19:54:00,
2013-05-27 15:59:00,51.8,48.7,30.06,North,0,2.9,2.9,89,0.00,,---,0.04,VWS V14.00,2013-05-27 19:59:00,
2013-05-27 16:04:00,51.8,49.0,30.06,SE,135,1.6,1.6,90,0.00,,---,0.04,VWS V14.00,2013-05-27 20:04:00,
2013-05-27 16:09:00,51.8,49.0,30.06,SSE,158,2.0,4.7,90,0.00,,---,0.04,VWS V14.00,2013-05-27 20:09:00,
2013-05-27 16:14:00,51.8,49.0,30.06,SSE,158,2.2,2.2,90,0.00,,---,0.04,VWS V14.00,2013-05-27 20:14:00,
2013-05-27 16:19:00,51.8,49.0,30.06,SSW,202,0.9,2.5,90,0.00,,---,0.04,VWS V14.00,2013-05-27 20:19:00,
2013-05-27 16:24:00,51.8,49.0,30.06,South,180,2.0,2.9,90,0.00,,---,0.04,VWS V14.00,2013-05-27 20:24:00,
2013-05-27 16:30:00,51.8,49.0,30.06,SSE,158,0.0,1.3,90,0.00,,---,0.04,VWS V14.00,2013-05-27 20:30:00,
2013-05-27 16:35:00,52.0,49.1,30.06,South,180,1.6,3.1,90,0.00,,---,0.04,VWS V14.00,2013-05-27 20:35:00,
2013-05-27 16:40:00,52.2,49.3,30.06,ESE,112,0.0,1.1,90,0.00,,---,0.04,VWS V14.00,2013-05-27 20:40:00,
2013-05-27 16:45:00,52.3,49.5,30.03,SE,135,1.3,2.9,90,0.00,,---,0.04,VWS V14.00,2013-05-27 20:45:00,
2013-05-27 16:50:00,52.2,49.3,30.03,SSE,158,1.3,1.6,90,0.00,,---,0.04,VWS V14.00,2013-05-27 20:50:00,
2013-05-27 16:55:00,52.3,49.5,30.03,SW,225,2.0,2.7,90,0.00,,---,0.04,VWS V14.00,2013-05-27 20:55:00,
2013-05-27 17:00:00,52.2,49.3,30.03,South,180,1.1,3.8,90,0.00,,---,0.04,VWS V14.00,2013-05-27 21:00:00,
2013-05-27 17:05:00,52.2,49.3,30.03,South,180,4.3,4.3,90,0.00,,---,0.04,VWS V14.00,2013-05-27 21:05:00,
2013-05-27 17:10:00,52.2,49.3,30.03,NE,45,2.9,2.9,90,0.00,,---,0.04,VWS V14.00,2013-05-27 21:10:00,
2013-05-27 17:15:00,52.2,49.6,30.00,South,180,0.0,4.3,91,0.00,,---,0.04,VWS V14.00,2013-05-27 21:15:00,
2013-05-27 17:20:00,52.2,49.6,30.00,West,270,2.7,2.7,91,0.00,,---,0.04,VWS V14.00,2013-05-27 21:20:00,
2013-05-27 17:25:00,52.2,49.6,30.00,SSE,158,0.0,0.0,91,0.00,,---,0.04,VWS V14.00,2013-05-27 21:25:00,
2013-05-27 17:30:00,52.2,49.6,30.00,ESE,112,2.2,2.2,91,0.00,,---,0.04,VWS V14.00,2013-05-27 21:30:00,
2013-05-27 17:35:00,52.2,49.9,30.00,SSW,202,1.3,2.0,92,0.00,,---,0.04,VWS V14.00,2013-05-27 21:35:00,
2013-05-27 17:40:00,52.2,49.9,30.00,North,0,0.9,1.6,92,0.00,,---,0.04,VWS V14.00,2013-05-27 21:40:00,
2013-05-27 17:45:00,52.2,49.9,30.00,SSW,202,2.5,4.9,92,0.00,,---,0.04,VWS V14.00,2013-05-27 21:45:00,
2013-05-27 17:51:00,52.2,49.9,30.00,South,180,1.3,3.4,92,0.00,,---,0.04,VWS V14.00,2013-05-27 21:51:00,
2013-05-27 17:56:00,52.3,50.4,30.00,South,180,1.6,4.3,93,0.00,,---,0.04,VWS V14.00,2013-05-27 21:56:00,
2013-05-27 18:01:00,52.3,50.4,30.00,NE,45,1.3,3.8,93,0.04,,---,0.08,VWS V14.00,2013-05-27 22:01:00,
2013-05-27 18:06:00,52.3,50.4,30.00,West,270,1.3,2.7,93,0.04,,---,0.08,VWS V14.00,2013-05-27 22:06:00,
2013-05-27 18:11:00,52.3,50.4,30.00,WSW,248,2.5,2.5,93,0.04,,---,0.08,VWS V14.00,2013-05-27 22:11:00,
2013-05-27 18:16:00,52.5,50.6,30.00,South,180,3.1,3.1,93,0.04,,---,0.08,VWS V14.00,2013-05-27 22:16:00,
2013-05-27 18:21:00,52.5,50.6,30.00,ESE,112,0.0,0.0,93,0.04,,---,0.08,VWS V14.00,2013-05-27 22:21:00,
2013-05-27 18:26:00,52.5,50.6,30.00,SE,135,1.6,1.6,93,0.04,,---,0.08,VWS V14.00,2013-05-27 22:26:00,
2013-05-27 18:31:00,52.5,50.6,30.00,NNE,22,1.3,1.6,93,0.04,,---,0.08,VWS V14.00,2013-05-27 22:31:00,
2013-05-27 18:36:00,52.5,50.6,30.00,NE,45,2.0,2.0,93,0.04,,---,0.08,VWS V14.00,2013-05-27 22:36:00,
2013-05-27 18:41:00,52.5,50.6,30.00,SW,225,3.1,3.6,93,0.04,,---,0.08,VWS V14.00,2013-05-27 22:41:00,
2013-05-27 18:46:00,52.3,50.4,29.97,SE,135,0.9,0.9,93,0.04,,---,0.08,VWS V14.00,2013-05-27 22:46:00,
2013-05-27 18:52:00,52.3,50.4,29.97,SE,135,1.6,1.6,93,0.04,,---,0.08,VWS V14.00,2013-05-27 22:52:00,
2013-05-27 18:57:00,52.5,50.6,29.97,South,180,1.3,1.3,93,0.04,,---,0.08,VWS V14.00,2013-05-27 22:57:00,
2013-05-27 19:02:00,52.5,50.6,29.97,South,180,0.9,2.0,93,0.00,,---,0.08,VWS V14.00,2013-05-27 23:02:00,
2013-05-27 19:07:00,52.5,50.6,29.97,SSE,158,1.6,2.9,93,0.00,,---,0.08,VWS V14.00,2013-05-27 23:07:00,
2013-05-27 19:12:00,52.5,50.6,29.97,SSE,158,1.6,1.6,93,0.00,,---,0.08,VWS V14.00,2013-05-27 23:12:00,
2013-05-27 19:17:00,52.5,50.6,29.97,SSW,202,1.3,2.7,93,0.00,,---,0.08,VWS V14.00,2013-05-27 23:17:00,
2013-05-27 19:22:00,52.3,50.7,29.97,SSE,158,1.3,2.7,94,0.00,,---,0.08,VWS V14.00,2013-05-27 23:22:00,
2013-05-27 19:27:00,52.3,50.7,29.97,SSE,158,2.2,2.2,94,0.00,,---,0.08,VWS V14.00,2013-05-27 23:27:00,
2013-05-27 19:32:00,52.5,50.8,29.97,SSE,158,2.9,2.9,94,0.00,,---,0.08,VWS V14.00,2013-05-27 23:32:00,
2013-05-27 19:37:00,52.5,50.8,29.97,ENE,68,3.1,3.1,94,0.00,,---,0.08,VWS V14.00,2013-05-27 23:37:00,
2013-05-27 19:42:00,52.7,51.0,29.97,SSE,158,2.2,2.5,94,0.00,,---,0.08,VWS V14.00,2013-05-27 23:42:00,
2013-05-27 19:47:00,52.7,51.0,29.97,ENE,68,1.1,2.0,94,0.00,,---,0.08,VWS V14.00,2013-05-27 23:47:00,
2013-05-27 19:52:00,52.7,51.0,29.97,WSW,248,2.9,2.9,94,0.00,,---,0.08,VWS V14.00,2013-05-27 23:52:00,
2013-05-27 19:57:00,52.7,51.0,29.97,South,180,1.3,1.3,94,0.00,,---,0.08,VWS V14.00,2013-05-27 23:57:00,
2013-05-27 20:02:00,52.7,51.0,29.97,East,90,0.0,0.0,94,0.00,,---,0.08,VWS V14.00,2013-05-28 00:02:00,
2013-05-27 20:07:00,52.7,51.0,29.97,SSW,202,2.5,2.5,94,0.00,,---,0.08,VWS V14.00,2013-05-28 00:07:00,
2013-05-27 20:12:00,52.7,51.0,29.97,WSW,248,1.3,2.5,94,0.00,,---,0.08,VWS V14.00,2013-05-28 00:12:00,
2013-05-27 20:17:00,52.7,51.0,29.97,WNW,292,0.9,2.5,94,0.00,,---,0.08,VWS V14.00,2013-05-28 00:17:00,
2013-05-27 20:22:00,52.7,51.0,29.97,SE,135,0.0,2.2,94,0.00,,---,0.08,VWS V14.00,2013-05-28 00:22:00,
2013-05-27 20:28:00,52.7,51.0,29.97,SE,135,1.1,2.9,94,0.00,,---,0.08,VWS V14.00,2013-05-28 00:28:00,
2013-05-27 20:33:00,52.7,51.0,29.97,South,180,0.0,0.9,94,0.00,,---,0.08,VWS V14.00,2013-05-28 00:33:00,
2013-05-27 20:38:00,52.7,51.0,29.97,SE,135,0.0,1.3,94,0.00,,---,0.08,VWS V14.00,2013-05-28 00:38:00,
2013-05-27 20:43:00,52.9,51.2,29.97,NE,45,1.3,1.3,94,0.00,,---,0.08,VWS V14.00,2013-05-28 00:43:00,
2013-05-27 20:48:00,52.9,51.2,29.97,South,180,0.0,0.0,94,0.00,,---,0.08,VWS V14.00,2013-05-28 00:48:00,
2013-05-27 20:53:00,52.9,51.2,29.97,NNW,338,1.3,1.3,94,0.00,,---,0.08,VWS V14.00,2013-05-28 00:53:00,
2013-05-27 20:58:00,52.9,51.2,29.94,North,0,2.9,2.9,94,0.00,,---,0.08,VWS V14.00,2013-05-28 00:58:00,
2013-05-27 21:03:00,52.9,51.2,29.94,NE,45,2.0,2.9,94,0.00,,---,0.08,VWS V14.00,2013-05-28 01:03:00,
2013-05-27 21:08:00,52.9,51.2,29.94,ESE,112,0.0,0.9,94,0.00,,---,0.08,VWS V14.00,2013-05-28 01:08:00,
2013-05-27 21:14:00,52.9,51.2,29.94,SSE,158,0.9,2.0,94,0.00,,---,0.08,VWS V14.00,2013-05-28 01:14:00,
2013-05-27 21:19:00,52.9,51.2,29.94,SE,135,2.0,2.9,94,0.00,,---,0.08,VWS V14.00,2013-05-28 01:19:00,
2013-05-27 21:24:00,52.9,51.2,29.94,South,180,0.9,1.6,94,0.00,,---,0.08,VWS V14.00,2013-05-28 01:24:00,
2013-05-27 21:29:00,53.1,51.4,29.94,SSW,202,1.1,1.1,94,0.00,,---,0.08,VWS V14.00,2013-05-28 01:29:00,
2013-05-27 21:34:00,53.1,51.4,29.94,SSE,158,1.1,1.1,94,0.00,,---,0.08,VWS V14.00,2013-05-28 01:34:00,
2013-05-27 21:39:00,53.1,51.4,29.94,ESE,112,1.3,1.3,94,0.00,,---,0.08,VWS V14.00,2013-05-28 01:39:00,
2013-05-27 21:44:00,53.1,51.4,29.94,East,90,0.0,0.0,94,0.00,,---,0.08,VWS V14.00,2013-05-28 01:44:00,
2013-05-27 21:49:00,53.1,51.4,29.94,West,270,0.0,0.0,94,0.00,,---,0.08,VWS V14.00,2013-05-28 01:49:00,
2013-05-27 21:54:00,53.2,51.6,29.94,East,90,0.0,0.0,94,0.00,,---,0.08,VWS V14.00,2013-05-28 01:54:00,
2013-05-27 21:59:00,53.2,51.6,29.94,SSE,158,1.6,2.5,94,0.00,,---,0.08,VWS V14.00,2013-05-28 01:59:00,
2013-05-27 22:05:00,53.2,51.6,29.94,SSW,202,1.1,1.3,94,0.00,,---,0.08,VWS V14.00,2013-05-28 02:05:00,
2013-05-27 22:10:00,53.2,51.6,29.94,South,180,0.9,1.3,94,0.00,,---,0.08,VWS V14.00,2013-05-28 02:10:00,
2013-05-27 22:15:00,53.2,51.6,29.94,South,180,1.6,1.6,94,0.00,,---,0.08,VWS V14.00,2013-05-28 02:15:00,
2013-05-27 22:20:00,53.2,51.6,29.94,East,90,0.0,1.3,94,0.00,,---,0.08,VWS V14.00,2013-05-28 02:20:00,
2013-05-27 22:25:00,53.2,51.6,29.94,NNE,22,2.0,2.0,94,0.00,,---,0.08,VWS V14.00,2013-05-28 02:25:00,
2013-05-27 22:30:00,53.4,52.0,29.94,South,180,0.0,0.0,95,0.00,,---,0.08,VWS V14.00,2013-05-28 02:30:00,
2013-05-27 22:35:00,53.4,52.0,29.94,SSE,158,0.0,0.0,95,0.00,,---,0.08,VWS V14.00,2013-05-28 02:35:00,
2013-05-27 22:40:00,53.4,52.0,29.94,SSE,158,0.0,0.0,95,0.00,,---,0.08,VWS V14.00,2013-05-28 02:40:00,
2013-05-27 22:45:00,53.4,52.0,29.94,SSE,158,0.0,0.0,95,0.00,,---,0.08,VWS V14.00,2013-05-28 02:45:00,
2013-05-27 22:50:00,53.4,52.0,29.94,SE,135,0.0,0.0,95,0.00,,---,0.08,VWS V14.00,2013-05-28 02:50:00,
2013-05-27 22:56:00,53.4,52.0,29.94,North,0,1.1,1.3,95,0.00,,---,0.08,VWS V14.00,2013-05-28 02:56:00,
2013-05-27 23:01:00,53.4,52.0,29.94,SE,135,1.3,1.6,95,0.00,,---,0.08,VWS V14.00,2013-05-28 03:01:00,
2013-05-27 23:06:00,53.4,52.0,29.94,SSW,202,0.0,0.0,95,0.00,,---,0.08,VWS V14.00,2013-05-28 03:06:00,
2013-05-27 23:11:00,53.4,52.0,29.94,SSE,158,2.0,2.7,95,0.00,,---,0.08,VWS V14.00,2013-05-28 03:11:00,
2013-05-27 23:16:00,53.4,52.0,29.97,West,270,0.0,1.6,95,0.00,,---,0.08,VWS V14.00,2013-05-28 03:16:00,
2013-05-27 23:21:00,53.4,52.0,29.97,SSE,158,0.0,2.9,95,0.00,,---,0.08,VWS V14.00,2013-05-28 03:21:00,
2013-05-27 23:26:00,53.6,52.2,29.97,SSW,202,0.0,0.0,95,0.00,,---,0.08,VWS V14.00,2013-05-28 03:26:00,
2013-05-27 23:31:00,53.6,52.2,29.94,ENE,68,1.1,1.1,95,0.00,,---,0.08,VWS V14.00,2013-05-28 03:31:00,
2013-05-27 23:36:00,53.6,52.2,29.94,SSW,202,0.0,1.3,95,0.00,,---,0.08,VWS V14.00,2013-05-28 03:36:00,
2013-05-27 23:41:00,53.6,52.2,29.94,East,90,0.0,2.9,95,0.00,,---,0.08,VWS V14.00,2013-05-28 03:41:00,
2013-05-27 23:46:00,53.6,52.2,29.94,South,180,1.1,1.1,95,0.00,,---,0.08,VWS V14.00,2013-05-28 03:46:00,
2013-05-27 23:51:00,53.6,52.2,29.94,South,180,1.1,1.1,95,0.00,,---,0.08,VWS V14.00,2013-05-28 03:51:00,
2013-05-27 23:56:00,53.8,52.4,29.94,South,180,2.0,2.0,95,0.00,,---,0.08,VWS V14.00,2013-05-28 03:56:00,